sensor_id;sensor_type;location;lat;lon;timestamp;temperature;humidity
9116;DHT22;4593;53.652;10.168;2023-03-12T00:01:45;1.80;100.00
9116;DHT22;4593;53.652;10.168;2023-03-12T00:04:10;1.80;100.00
9116;DHT22;4593;53.652;10.168;2023-03-12T00:06:36;1.80;100.00
9116;DHT22;4593;53.652;10.168;2023-03-12T00:09:02;1.80;100.00
9116;DHT22;4593;53.652;10.168;2023-03-12T00:11:29;1.80;100.00
9116;DHT22;4593;53.652;10.168;2023-03-12T00:13:56;1.80;100.00
9116;DHT22;4593;53.652;10.168;2023-03-12T00:16:23;1.80;100.00
9116;DHT22;4593;53.652;10.168;2023-03-12T00:18:50;1.90;100.00
9116;DHT22;4593;53.652;10.168;2023-03-12T00:21:17;1.90;100.00
9116;DHT22;4593;53.652;10.168;2023-03-12T00:23:43;1.90;100.00
9116;DHT22;4593;53.652;10.168;2023-03-12T00:26:11;1.90;100.00
9116;DHT22;4593;53.652;10.168;2023-03-12T00:28:37;1.90;100.00
9116;DHT22;4593;53.652;10.168;2023-03-12T00:31:15;1.90;100.00
9116;DHT22;4593;53.652;10.168;2023-03-12T00:33:42;1.90;100.00
9116;DHT22;4593;53.652;10.168;2023-03-12T00:36:08;1.90;100.00
9116;DHT22;4593;53.652;10.168;2023-03-12T00:38:34;1.80;100.00
9116;DHT22;4593;53.652;10.168;2023-03-12T00:40:59;1.90;100.00
9116;DHT22;4593;53.652;10.168;2023-03-12T00:43:25;1.80;100.00
9116;DHT22;4593;53.652;10.168;2023-03-12T00:45:51;1.80;100.00
9116;DHT22;4593;53.652;10.168;2023-03-12T00:48:16;1.90;100.00
9116;DHT22;4593;53.652;10.168;2023-03-12T00:50:42;1.80;100.00
9116;DHT22;4593;53.652;10.168;2023-03-12T00:53:08;1.90;100.00
9116;DHT22;4593;53.652;10.168;2023-03-12T00:55:33;1.90;100.00
9116;DHT22;4593;53.652;10.168;2023-03-12T00:57:59;1.90;100.00
9116;DHT22;4593;53.652;10.168;2023-03-12T01:00:25;1.90;100.00
9116;DHT22;4593;53.652;10.168;2023-03-12T01:02:51;1.90;100.00
9116;DHT22;4593;53.652;10.168;2023-03-12T01:05:17;1.90;100.00
9116;DHT22;4593;53.652;10.168;2023-03-12T01:07:42;1.90;100.00
9116;DHT22;4593;53.652;10.168;2023-03-12T01:10:09;1.80;100.00
9116;DHT22;4593;53.652;10.168;2023-03-12T01:12:37;1.80;100.00
9116;DHT22;4593;53.652;10.168;2023-03-12T01:15:03;1.70;100.00
9116;DHT22;4593;53.652;10.168;2023-03-12T01:17:29;1.70;100.00
9116;DHT22;4593;53.652;10.168;2023-03-12T01:19:55;1.70;100.00
9116;DHT22;4593;53.652;10.168;2023-03-12T01:22:20;1.60;100.00
9116;DHT22;4593;53.652;10.168;2023-03-12T01:24:46;1.60;100.00
9116;DHT22;4593;53.652;10.168;2023-03-12T01:27:12;1.50;100.00
9116;DHT22;4593;53.652;10.168;2023-03-12T01:29:38;1.50;100.00
9116;DHT22;4593;53.652;10.168;2023-03-12T01:32:04;1.50;100.00
9116;DHT22;4593;53.652;10.168;2023-03-12T01:34:30;1.60;100.00
9116;DHT22;4593;53.652;10.168;2023-03-12T01:36:57;1.60;100.00
9116;DHT22;4593;53.652;10.168;2023-03-12T01:39:23;1.50;100.00
9116;DHT22;4593;53.652;10.168;2023-03-12T01:41:50;1.50;100.00
9116;DHT22;4593;53.652;10.168;2023-03-12T01:44:16;1.60;100.00
9116;DHT22;4593;53.652;10.168;2023-03-12T01:46:42;1.50;100.00
9116;DHT22;4593;53.652;10.168;2023-03-12T01:51:46;1.60;100.00
9116;DHT22;4593;53.652;10.168;2023-03-12T01:54:22;1.50;100.00
9116;DHT22;4593;53.652;10.168;2023-03-12T01:56:50;1.50;100.00
9116;DHT22;4593;53.652;10.168;2023-03-12T01:59:21;1.60;100.00
9116;DHT22;4593;53.652;10.168;2023-03-12T02:01:47;1.60;100.00
9116;DHT22;4593;53.652;10.168;2023-03-12T02:04:15;1.60;100.00
9116;DHT22;4593;53.652;10.168;2023-03-12T02:06:48;1.60;100.00
9116;DHT22;4593;53.652;10.168;2023-03-12T02:09:15;1.60;100.00
9116;DHT22;4593;53.652;10.168;2023-03-12T02:11:44;1.50;100.00
9116;DHT22;4593;53.652;10.168;2023-03-12T02:14:10;1.60;100.00
9116;DHT22;4593;53.652;10.168;2023-03-12T02:16:36;1.60;100.00
9116;DHT22;4593;53.652;10.168;2023-03-12T02:19:03;1.60;100.00
9116;DHT22;4593;53.652;10.168;2023-03-12T02:21:33;1.70;100.00
9116;DHT22;4593;53.652;10.168;2023-03-12T02:24:08;1.70;100.00
9116;DHT22;4593;53.652;10.168;2023-03-12T02:26:38;1.80;100.00
9116;DHT22;4593;53.652;10.168;2023-03-12T02:29:06;1.80;100.00
9116;DHT22;4593;53.652;10.168;2023-03-12T02:31:37;1.80;100.00
9116;DHT22;4593;53.652;10.168;2023-03-12T02:34:05;1.80;100.00
9116;DHT22;4593;53.652;10.168;2023-03-12T02:36:31;1.80;100.00
9116;DHT22;4593;53.652;10.168;2023-03-12T02:38:57;1.80;100.00
9116;DHT22;4593;53.652;10.168;2023-03-12T02:41:27;1.80;100.00
9116;DHT22;4593;53.652;10.168;2023-03-12T02:44:01;1.70;100.00
9116;DHT22;4593;53.652;10.168;2023-03-12T02:46:31;1.80;100.00
9116;DHT22;4593;53.652;10.168;2023-03-12T02:48:58;1.80;100.00
9116;DHT22;4593;53.652;10.168;2023-03-12T02:51:24;1.80;100.00
9116;DHT22;4593;53.652;10.168;2023-03-12T02:53:50;1.80;100.00
9116;DHT22;4593;53.652;10.168;2023-03-12T02:56:20;1.70;100.00
9116;DHT22;4593;53.652;10.168;2023-03-12T02:58:46;1.70;100.00
9116;DHT22;4593;53.652;10.168;2023-03-12T03:01:12;1.60;100.00
9116;DHT22;4593;53.652;10.168;2023-03-12T03:03:38;1.50;100.00
9116;DHT22;4593;53.652;10.168;2023-03-12T03:06:03;1.50;100.00
9116;DHT22;4593;53.652;10.168;2023-03-12T03:08:29;1.50;100.00
9116;DHT22;4593;53.652;10.168;2023-03-12T03:10:55;1.50;100.00
9116;DHT22;4593;53.652;10.168;2023-03-12T03:13:20;1.50;100.00
9116;DHT22;4593;53.652;10.168;2023-03-12T03:15:46;1.50;100.00
9116;DHT22;4593;53.652;10.168;2023-03-12T03:18:12;1.50;100.00
9116;DHT22;4593;53.652;10.168;2023-03-12T03:20:37;1.50;100.00
9116;DHT22;4593;53.652;10.168;2023-03-12T03:23:31;1.50;100.00
9116;DHT22;4593;53.652;10.168;2023-03-12T03:25:57;1.50;100.00
9116;DHT22;4593;53.652;10.168;2023-03-12T03:28:25;1.50;100.00
9116;DHT22;4593;53.652;10.168;2023-03-12T03:30:55;1.50;100.00
9116;DHT22;4593;53.652;10.168;2023-03-12T03:33:28;1.60;100.00
9116;DHT22;4593;53.652;10.168;2023-03-12T03:35:55;1.50;100.00
9116;DHT22;4593;53.652;10.168;2023-03-12T03:38:21;1.50;100.00
9116;DHT22;4593;53.652;10.168;2023-03-12T03:40:47;1.50;100.00
9116;DHT22;4593;53.652;10.168;2023-03-12T03:43:13;1.50;100.00
9116;DHT22;4593;53.652;10.168;2023-03-12T03:45:38;1.50;100.00
9116;DHT22;4593;53.652;10.168;2023-03-12T03:48:04;1.50;100.00
9116;DHT22;4593;53.652;10.168;2023-03-12T03:50:30;1.50;100.00
9116;DHT22;4593;53.652;10.168;2023-03-12T03:52:56;1.50;100.00
9116;DHT22;4593;53.652;10.168;2023-03-12T03:55:22;1.50;100.00
9116;DHT22;4593;53.652;10.168;2023-03-12T03:57:48;1.50;100.00
9116;DHT22;4593;53.652;10.168;2023-03-12T04:00:13;1.50;100.00
9116;DHT22;4593;53.652;10.168;2023-03-12T04:02:42;1.50;100.00
9116;DHT22;4593;53.652;10.168;2023-03-12T04:05:09;1.50;100.00
9116;DHT22;4593;53.652;10.168;2023-03-12T04:07:35;1.40;100.00
9116;DHT22;4593;53.652;10.168;2023-03-12T04:10:02;1.40;100.00
9116;DHT22;4593;53.652;10.168;2023-03-12T04:12:29;1.40;100.00
9116;DHT22;4593;53.652;10.168;2023-03-12T04:14:55;1.40;100.00
9116;DHT22;4593;53.652;10.168;2023-03-12T04:17:21;1.40;100.00
9116;DHT22;4593;53.652;10.168;2023-03-12T04:19:46;1.40;100.00
9116;DHT22;4593;53.652;10.168;2023-03-12T04:22:12;1.40;100.00
9116;DHT22;4593;53.652;10.168;2023-03-12T04:24:38;1.40;100.00
9116;DHT22;4593;53.652;10.168;2023-03-12T04:27:04;1.40;100.00
9116;DHT22;4593;53.652;10.168;2023-03-12T04:29:30;1.50;100.00
9116;DHT22;4593;53.652;10.168;2023-03-12T04:31:56;1.40;100.00
9116;DHT22;4593;53.652;10.168;2023-03-12T04:34:22;1.40;100.00
9116;DHT22;4593;53.652;10.168;2023-03-12T04:36:48;1.30;100.00
9116;DHT22;4593;53.652;10.168;2023-03-12T04:39:20;1.10;100.00
9116;DHT22;4593;53.652;10.168;2023-03-12T04:41:47;1.10;100.00
9116;DHT22;4593;53.652;10.168;2023-03-12T04:44:13;1.00;100.00
9116;DHT22;4593;53.652;10.168;2023-03-12T04:46:39;1.00;100.00
9116;DHT22;4593;53.652;10.168;2023-03-12T04:49:05;1.00;100.00
9116;DHT22;4593;53.652;10.168;2023-03-12T04:51:31;1.00;100.00
9116;DHT22;4593;53.652;10.168;2023-03-12T04:53:57;0.90;100.00
9116;DHT22;4593;53.652;10.168;2023-03-12T04:56:23;0.80;100.00
9116;DHT22;4593;53.652;10.168;2023-03-12T04:58:49;0.70;100.00
9116;DHT22;4593;53.652;10.168;2023-03-12T05:03:45;0.60;100.00
9116;DHT22;4593;53.652;10.168;2023-03-12T05:06:12;0.50;100.00
9116;DHT22;4593;53.652;10.168;2023-03-12T05:08:37;0.40;100.00
9116;DHT22;4593;53.652;10.168;2023-03-12T05:11:03;0.30;100.00
9116;DHT22;4593;53.652;10.168;2023-03-12T05:13:29;0.20;100.00
9116;DHT22;4593;53.652;10.168;2023-03-12T05:15:54;0.20;100.00
9116;DHT22;4593;53.652;10.168;2023-03-12T05:18:20;0.20;100.00
9116;DHT22;4593;53.652;10.168;2023-03-12T05:20:46;0.20;100.00
9116;DHT22;4593;53.652;10.168;2023-03-12T05:23:11;0.30;100.00
9116;DHT22;4593;53.652;10.168;2023-03-12T05:25:39;0.30;100.00
9116;DHT22;4593;53.652;10.168;2023-03-12T05:28:05;0.40;100.00
9116;DHT22;4593;53.652;10.168;2023-03-12T05:30:30;0.40;100.00
9116;DHT22;4593;53.652;10.168;2023-03-12T05:32:56;0.50;100.00
9116;DHT22;4593;53.652;10.168;2023-03-12T05:35:22;0.40;100.00
9116;DHT22;4593;53.652;10.168;2023-03-12T05:37:47;0.50;100.00
9116;DHT22;4593;53.652;10.168;2023-03-12T05:40:13;0.40;100.00
9116;DHT22;4593;53.652;10.168;2023-03-12T05:42:39;0.40;100.00
9116;DHT22;4593;53.652;10.168;2023-03-12T05:45:05;0.40;100.00
9116;DHT22;4593;53.652;10.168;2023-03-12T05:47:31;0.40;100.00
9116;DHT22;4593;53.652;10.168;2023-03-12T05:49:56;0.40;100.00
9116;DHT22;4593;53.652;10.168;2023-03-12T05:52:22;0.40;100.00
9116;DHT22;4593;53.652;10.168;2023-03-12T05:54:48;0.40;100.00
9116;DHT22;4593;53.652;10.168;2023-03-12T05:57:13;0.40;100.00
9116;DHT22;4593;53.652;10.168;2023-03-12T05:59:39;0.50;100.00
9116;DHT22;4593;53.652;10.168;2023-03-12T06:02:05;0.50;100.00
9116;DHT22;4593;53.652;10.168;2023-03-12T06:04:30;0.50;100.00
9116;DHT22;4593;53.652;10.168;2023-03-12T06:06:56;0.50;100.00
9116;DHT22;4593;53.652;10.168;2023-03-12T06:09:22;0.60;100.00
9116;DHT22;4593;53.652;10.168;2023-03-12T06:11:47;0.60;100.00
9116;DHT22;4593;53.652;10.168;2023-03-12T06:14:13;0.70;100.00
9116;DHT22;4593;53.652;10.168;2023-03-12T06:16:39;0.70;100.00
9116;DHT22;4593;53.652;10.168;2023-03-12T06:19:05;0.70;100.00
9116;DHT22;4593;53.652;10.168;2023-03-12T06:21:33;0.70;100.00
9116;DHT22;4593;53.652;10.168;2023-03-12T06:24:00;0.80;100.00
9116;DHT22;4593;53.652;10.168;2023-03-12T06:26:26;1.00;100.00
9116;DHT22;4593;53.652;10.168;2023-03-12T06:28:52;1.10;100.00
9116;DHT22;4593;53.652;10.168;2023-03-12T06:31:19;1.20;100.00
9116;DHT22;4593;53.652;10.168;2023-03-12T06:33:46;1.10;100.00
9116;DHT22;4593;53.652;10.168;2023-03-12T06:36:12;1.20;100.00
9116;DHT22;4593;53.652;10.168;2023-03-12T06:38:38;1.20;100.00
9116;DHT22;4593;53.652;10.168;2023-03-12T06:41:07;1.10;100.00
9116;DHT22;4593;53.652;10.168;2023-03-12T06:43:34;1.10;100.00
9116;DHT22;4593;53.652;10.168;2023-03-12T06:46:01;1.10;100.00
9116;DHT22;4593;53.652;10.168;2023-03-12T06:48:28;1.10;100.00
9116;DHT22;4593;53.652;10.168;2023-03-12T06:50:54;1.10;100.00
9116;DHT22;4593;53.652;10.168;2023-03-12T06:53:21;1.00;100.00
9116;DHT22;4593;53.652;10.168;2023-03-12T06:55:49;1.00;100.00
9116;DHT22;4593;53.652;10.168;2023-03-12T06:58:15;1.00;100.00
9116;DHT22;4593;53.652;10.168;2023-03-12T07:00:41;1.00;100.00
9116;DHT22;4593;53.652;10.168;2023-03-12T07:03:06;1.00;100.00
9116;DHT22;4593;53.652;10.168;2023-03-12T07:05:32;1.10;100.00
9116;DHT22;4593;53.652;10.168;2023-03-12T07:07:58;1.20;100.00
9116;DHT22;4593;53.652;10.168;2023-03-12T07:10:24;1.50;100.00
9116;DHT22;4593;53.652;10.168;2023-03-12T07:12:52;1.70;100.00
9116;DHT22;4593;53.652;10.168;2023-03-12T07:15:19;1.90;100.00
9116;DHT22;4593;53.652;10.168;2023-03-12T07:17:44;2.10;100.00
9116;DHT22;4593;53.652;10.168;2023-03-12T07:20:11;2.10;100.00
9116;DHT22;4593;53.652;10.168;2023-03-12T07:22:36;2.20;100.00
9116;DHT22;4593;53.652;10.168;2023-03-12T07:25:03;2.40;100.00
9116;DHT22;4593;53.652;10.168;2023-03-12T07:27:29;2.30;100.00
9116;DHT22;4593;53.652;10.168;2023-03-12T07:29:54;2.50;100.00
9116;DHT22;4593;53.652;10.168;2023-03-12T07:32:20;2.50;100.00
9116;DHT22;4593;53.652;10.168;2023-03-12T07:34:46;2.70;100.00
9116;DHT22;4593;53.652;10.168;2023-03-12T07:37:12;2.80;100.00
9116;DHT22;4593;53.652;10.168;2023-03-12T07:39:39;2.80;100.00
9116;DHT22;4593;53.652;10.168;2023-03-12T07:42:04;2.70;100.00
9116;DHT22;4593;53.652;10.168;2023-03-12T07:44:30;2.70;100.00
9116;DHT22;4593;53.652;10.168;2023-03-12T07:46:56;2.90;100.00
9116;DHT22;4593;53.652;10.168;2023-03-12T07:49:22;3.10;100.00
9116;DHT22;4593;53.652;10.168;2023-03-12T07:51:47;3.20;100.00
9116;DHT22;4593;53.652;10.168;2023-03-12T07:54:13;3.40;100.00
9116;DHT22;4593;53.652;10.168;2023-03-12T07:56:39;3.40;100.00
9116;DHT22;4593;53.652;10.168;2023-03-12T07:59:04;3.40;100.00
9116;DHT22;4593;53.652;10.168;2023-03-12T08:01:30;3.50;100.00
9116;DHT22;4593;53.652;10.168;2023-03-12T08:03:59;3.60;100.00
9116;DHT22;4593;53.652;10.168;2023-03-12T08:06:25;3.70;100.00
9116;DHT22;4593;53.652;10.168;2023-03-12T08:08:51;3.80;100.00
9116;DHT22;4593;53.652;10.168;2023-03-12T08:11:16;3.90;99.30
9116;DHT22;4593;53.652;10.168;2023-03-12T08:13:42;4.00;99.10
9116;DHT22;4593;53.652;10.168;2023-03-12T08:16:08;4.10;99.20
9116;DHT22;4593;53.652;10.168;2023-03-12T08:18:34;4.00;97.90
9116;DHT22;4593;53.652;10.168;2023-03-12T08:20:59;4.10;98.60
9116;DHT22;4593;53.652;10.168;2023-03-12T08:23:25;4.20;98.90
9116;DHT22;4593;53.652;10.168;2023-03-12T08:25:52;4.40;98.90
9116;DHT22;4593;53.652;10.168;2023-03-12T08:28:19;4.50;98.40
9116;DHT22;4593;53.652;10.168;2023-03-12T08:30:53;4.70;97.90
9116;DHT22;4593;53.652;10.168;2023-03-12T08:33:20;4.90;97.00
9116;DHT22;4593;53.652;10.168;2023-03-12T08:35:46;5.00;96.10
9116;DHT22;4593;53.652;10.168;2023-03-12T08:38:13;5.10;96.70
9116;DHT22;4593;53.652;10.168;2023-03-12T08:40:38;5.30;96.80
9116;DHT22;4593;53.652;10.168;2023-03-12T08:43:04;5.40;96.00
9116;DHT22;4593;53.652;10.168;2023-03-12T08:45:32;5.40;94.80
9116;DHT22;4593;53.652;10.168;2023-03-12T08:47:57;5.40;94.30
9116;DHT22;4593;53.652;10.168;2023-03-12T08:50:23;5.30;92.80
9116;DHT22;4593;53.652;10.168;2023-03-12T08:52:50;5.20;93.20
9116;DHT22;4593;53.652;10.168;2023-03-12T08:55:16;5.40;95.30
9116;DHT22;4593;53.652;10.168;2023-03-12T08:57:42;5.70;95.10
9116;DHT22;4593;53.652;10.168;2023-03-12T09:00:08;6.10;95.40
9116;DHT22;4593;53.652;10.168;2023-03-12T09:02:39;6.20;93.50
9116;DHT22;4593;53.652;10.168;2023-03-12T09:05:07;6.20;93.50
9116;DHT22;4593;53.652;10.168;2023-03-12T09:07:33;6.00;92.50
9116;DHT22;4593;53.652;10.168;2023-03-12T09:09:59;5.90;92.50
9116;DHT22;4593;53.652;10.168;2023-03-12T09:12:24;6.00;93.70
9116;DHT22;4593;53.652;10.168;2023-03-12T09:14:51;6.20;94.30
9116;DHT22;4593;53.652;10.168;2023-03-12T09:17:16;6.30;92.80
9116;DHT22;4593;53.652;10.168;2023-03-12T09:19:42;6.20;92.60
9116;DHT22;4593;53.652;10.168;2023-03-12T09:22:08;6.10;91.70
9116;DHT22;4593;53.652;10.168;2023-03-12T09:24:34;6.10;91.80
9116;DHT22;4593;53.652;10.168;2023-03-12T09:27:01;6.20;91.60
9116;DHT22;4593;53.652;10.168;2023-03-12T09:29:27;6.20;91.00
9116;DHT22;4593;53.652;10.168;2023-03-12T09:31:53;6.30;91.30
9116;DHT22;4593;53.652;10.168;2023-03-12T09:34:18;6.20;90.20
9116;DHT22;4593;53.652;10.168;2023-03-12T09:36:44;6.20;90.80
9116;DHT22;4593;53.652;10.168;2023-03-12T09:39:10;6.20;90.20
9116;DHT22;4593;53.652;10.168;2023-03-12T09:41:38;5.90;87.90
9116;DHT22;4593;53.652;10.168;2023-03-12T09:47:01;5.50;89.30
9116;DHT22;4593;53.652;10.168;2023-03-12T09:49:53;5.60;90.50
9116;DHT22;4593;53.652;10.168;2023-03-12T09:57:27;6.30;90.20
9116;DHT22;4593;53.652;10.168;2023-03-12T09:59:55;6.30;87.70
9116;DHT22;4593;53.652;10.168;2023-03-12T10:05:01;6.00;85.20
9116;DHT22;4593;53.652;10.168;2023-03-12T10:07:49;6.10;88.40
9116;DHT22;4593;53.652;10.168;2023-03-12T10:11:22;6.30;88.60
9116;DHT22;4593;53.652;10.168;2023-03-12T10:13:31;6.40;88.40
9116;DHT22;4593;53.652;10.168;2023-03-12T10:16:12;6.40;84.90
9116;DHT22;4593;53.652;10.168;2023-03-12T10:21:28;6.30;84.60
9116;DHT22;4593;53.652;10.168;2023-03-12T10:24:04;6.00;82.10
9116;DHT22;4593;53.652;10.168;2023-03-12T10:26:55;6.20;86.30
9116;DHT22;4593;53.652;10.168;2023-03-12T10:29:34;6.50;85.00
9116;DHT22;4593;53.652;10.168;2023-03-12T10:32:39;6.70;84.80
9116;DHT22;4593;53.652;10.168;2023-03-12T10:35:06;7.00;84.40
9116;DHT22;4593;53.652;10.168;2023-03-12T10:37:58;6.90;80.60
9116;DHT22;4593;53.652;10.168;2023-03-12T10:40:32;7.00;81.30
9116;DHT22;4593;53.652;10.168;2023-03-12T10:42:59;7.10;81.20
9116;DHT22;4593;53.652;10.168;2023-03-12T10:48:21;6.50;76.10
9116;DHT22;4593;53.652;10.168;2023-03-12T10:51:11;6.10;74.70
9116;DHT22;4593;53.652;10.168;2023-03-12T10:53:39;6.00;74.10
9116;DHT22;4593;53.652;10.168;2023-03-12T10:56:09;6.10;73.60
9116;DHT22;4593;53.652;10.168;2023-03-12T11:01:14;6.40;71.20
9116;DHT22;4593;53.652;10.168;2023-03-12T11:03:41;6.30;72.30
9116;DHT22;4593;53.652;10.168;2023-03-12T11:06:08;6.20;71.10
9116;DHT22;4593;53.652;10.168;2023-03-12T11:08:40;6.40;72.50
9116;DHT22;4593;53.652;10.168;2023-03-12T11:11:08;6.60;72.00
9116;DHT22;4593;53.652;10.168;2023-03-12T11:13:35;6.60;71.50
9116;DHT22;4593;53.652;10.168;2023-03-12T11:16:24;6.40;69.60
9116;DHT22;4593;53.652;10.168;2023-03-12T11:19:01;6.40;69.50
9116;DHT22;4593;53.652;10.168;2023-03-12T11:21:29;6.30;68.60
9116;DHT22;4593;53.652;10.168;2023-03-12T11:26:23;6.20;69.50
9116;DHT22;4593;53.652;10.168;2023-03-12T11:28:51;6.20;68.80
9116;DHT22;4593;53.652;10.168;2023-03-12T11:31:24;6.10;67.30
9116;DHT22;4593;53.652;10.168;2023-03-12T11:33:53;6.00;65.60
9116;DHT22;4593;53.652;10.168;2023-03-12T11:42:05;5.90;66.40
9116;DHT22;4593;53.652;10.168;2023-03-12T12:09:17;6.30;64.30
9116;DHT22;4593;53.652;10.168;2023-03-12T12:15:12;6.20;62.40
9116;DHT22;4593;53.652;10.168;2023-03-12T12:20:42;6.10;63.00
9116;DHT22;4593;53.652;10.168;2023-03-12T12:28:49;6.30;63.90
9116;DHT22;4593;53.652;10.168;2023-03-12T12:34:25;6.20;61.60
9116;DHT22;4593;53.652;10.168;2023-03-12T12:39:58;6.10;64.40
9116;DHT22;4593;53.652;10.168;2023-03-12T12:42:30;6.10;64.90
9116;DHT22;4593;53.652;10.168;2023-03-12T12:44:57;6.10;64.60
9116;DHT22;4593;53.652;10.168;2023-03-12T12:47:43;6.20;64.20
9116;DHT22;4593;53.652;10.168;2023-03-12T12:50:21;6.10;64.20
9116;DHT22;4593;53.652;10.168;2023-03-12T12:52:55;5.90;66.00
9116;DHT22;4593;53.652;10.168;2023-03-12T12:55:29;5.90;65.50
9116;DHT22;4593;53.652;10.168;2023-03-12T12:58:20;6.10;66.80
9116;DHT22;4593;53.652;10.168;2023-03-12T13:00:59;6.40;66.60
9116;DHT22;4593;53.652;10.168;2023-03-12T13:03:26;6.50;66.00
9116;DHT22;4593;53.652;10.168;2023-03-12T13:05:58;6.50;65.40
9116;DHT22;4593;53.652;10.168;2023-03-12T13:08:57;6.50;65.00
9116;DHT22;4593;53.652;10.168;2023-03-12T13:11:29;6.30;65.60
9116;DHT22;4593;53.652;10.168;2023-03-12T13:16:36;6.30;68.10
9116;DHT22;4593;53.652;10.168;2023-03-12T13:31:54;5.80;72.00
9116;DHT22;4593;53.652;10.168;2023-03-12T13:36:49;5.60;73.10
9116;DHT22;4593;53.652;10.168;2023-03-12T13:41:47;5.40;75.90
9116;DHT22;4593;53.652;10.168;2023-03-12T13:49:51;5.50;76.40
9116;DHT22;4593;53.652;10.168;2023-03-12T13:54:48;5.90;74.70
9116;DHT22;4593;53.652;10.168;2023-03-12T14:00:04;6.10;72.90
9116;DHT22;4593;53.652;10.168;2023-03-12T14:02:39;5.90;73.60
9116;DHT22;4593;53.652;10.168;2023-03-12T14:05:10;5.40;73.80
9116;DHT22;4593;53.652;10.168;2023-03-12T14:18:50;5.10;77.60
9116;DHT22;4593;53.652;10.168;2023-03-12T14:21:17;5.20;78.40
9116;DHT22;4593;53.652;10.168;2023-03-12T14:23:50;5.10;78.20
9116;DHT22;4593;53.652;10.168;2023-03-12T14:26:29;4.80;78.50
9116;DHT22;4593;53.652;10.168;2023-03-12T14:29:03;4.60;80.20
9116;DHT22;4593;53.652;10.168;2023-03-12T14:31:31;4.70;80.50
9116;DHT22;4593;53.652;10.168;2023-03-12T14:39:35;4.80;82.20
9116;DHT22;4593;53.652;10.168;2023-03-12T14:42:05;4.70;82.40
9116;DHT22;4593;53.652;10.168;2023-03-12T14:44:32;4.60;82.80
9116;DHT22;4593;53.652;10.168;2023-03-12T14:47:07;4.70;84.40
9116;DHT22;4593;53.652;10.168;2023-03-12T14:49:41;4.70;84.70
9116;DHT22;4593;53.652;10.168;2023-03-12T14:52:13;4.70;84.70
9116;DHT22;4593;53.652;10.168;2023-03-12T14:54:52;4.60;84.40
9116;DHT22;4593;53.652;10.168;2023-03-12T14:57:19;4.50;85.30
9116;DHT22;4593;53.652;10.168;2023-03-12T14:59:52;4.50;85.30
9116;DHT22;4593;53.652;10.168;2023-03-12T15:02:19;4.50;86.20
9116;DHT22;4593;53.652;10.168;2023-03-12T15:04:50;4.50;86.50
9116;DHT22;4593;53.652;10.168;2023-03-12T15:07:21;4.50;86.50
9116;DHT22;4593;53.652;10.168;2023-03-12T15:09:49;4.60;86.70
9116;DHT22;4593;53.652;10.168;2023-03-12T15:14:49;4.60;85.40
9116;DHT22;4593;53.652;10.168;2023-03-12T15:17:21;4.60;85.90
9116;DHT22;4593;53.652;10.168;2023-03-12T15:19:48;4.60;86.30
9116;DHT22;4593;53.652;10.168;2023-03-12T15:22:20;4.50;85.80
9116;DHT22;4593;53.652;10.168;2023-03-12T15:24:49;4.40;86.70
9116;DHT22;4593;53.652;10.168;2023-03-12T15:27:35;4.50;87.30
9116;DHT22;4593;53.652;10.168;2023-03-12T15:30:01;4.50;87.10
9116;DHT22;4593;53.652;10.168;2023-03-12T15:33:03;4.40;87.20
9116;DHT22;4593;53.652;10.168;2023-03-12T15:35:29;4.30;87.80
9116;DHT22;4593;53.652;10.168;2023-03-12T15:37:55;4.30;88.00
9116;DHT22;4593;53.652;10.168;2023-03-12T15:40:26;4.10;88.00
9116;DHT22;4593;53.652;10.168;2023-03-12T15:42:53;3.90;89.00
9116;DHT22;4593;53.652;10.168;2023-03-12T15:45:24;3.90;89.70
9116;DHT22;4593;53.652;10.168;2023-03-12T15:47:53;3.90;90.10
9116;DHT22;4593;53.652;10.168;2023-03-12T15:50:24;3.70;90.00
9116;DHT22;4593;53.652;10.168;2023-03-12T15:53:05;3.60;90.40
9116;DHT22;4593;53.652;10.168;2023-03-12T15:55:35;3.50;91.60
9116;DHT22;4593;53.652;10.168;2023-03-12T15:58:01;3.50;91.90
9116;DHT22;4593;53.652;10.168;2023-03-12T16:00:41;3.40;92.10
9116;DHT22;4593;53.652;10.168;2023-03-12T16:03:16;3.50;92.40
9116;DHT22;4593;53.652;10.168;2023-03-12T16:05:42;3.30;92.30
9116;DHT22;4593;53.652;10.168;2023-03-12T16:08:18;3.30;93.00
9116;DHT22;4593;53.652;10.168;2023-03-12T16:10:49;3.20;93.40
9116;DHT22;4593;53.652;10.168;2023-03-12T16:13:17;3.20;93.30
9116;DHT22;4593;53.652;10.168;2023-03-12T16:15:44;3.20;93.20
9116;DHT22;4593;53.652;10.168;2023-03-12T16:18:12;3.10;93.60
9116;DHT22;4593;53.652;10.168;2023-03-12T16:20:38;3.10;94.10
9116;DHT22;4593;53.652;10.168;2023-03-12T16:23:04;3.00;94.40
9116;DHT22;4593;53.652;10.168;2023-03-12T16:25:30;3.10;94.20
9116;DHT22;4593;53.652;10.168;2023-03-12T16:27:57;3.10;94.00
9116;DHT22;4593;53.652;10.168;2023-03-12T16:30:30;3.10;94.10
9116;DHT22;4593;53.652;10.168;2023-03-12T16:32:57;3.10;94.30
9116;DHT22;4593;53.652;10.168;2023-03-12T16:35:23;3.20;94.60
9116;DHT22;4593;53.652;10.168;2023-03-12T16:37:49;3.10;94.50
9116;DHT22;4593;53.652;10.168;2023-03-12T16:40:16;3.20;94.70
9116;DHT22;4593;53.652;10.168;2023-03-12T16:42:47;3.20;94.80
9116;DHT22;4593;53.652;10.168;2023-03-12T16:45:15;3.20;94.90
9116;DHT22;4593;53.652;10.168;2023-03-12T16:47:41;3.20;95.40
9116;DHT22;4593;53.652;10.168;2023-03-12T16:52:38;3.20;96.20
9116;DHT22;4593;53.652;10.168;2023-03-12T16:55:04;3.20;95.50
9116;DHT22;4593;53.652;10.168;2023-03-12T16:57:39;3.20;95.60
9116;DHT22;4593;53.652;10.168;2023-03-12T17:00:10;3.20;95.60
9116;DHT22;4593;53.652;10.168;2023-03-12T17:02:36;3.20;95.50
9116;DHT22;4593;53.652;10.168;2023-03-12T17:05:03;3.20;95.30
9116;DHT22;4593;53.652;10.168;2023-03-12T17:07:28;3.20;95.60
9116;DHT22;4593;53.652;10.168;2023-03-12T17:09:54;3.20;95.90
9116;DHT22;4593;53.652;10.168;2023-03-12T17:14:49;3.10;95.80
9116;DHT22;4593;53.652;10.168;2023-03-12T17:17:16;3.10;96.30
9116;DHT22;4593;53.652;10.168;2023-03-12T17:19:41;3.20;96.80
9116;DHT22;4593;53.652;10.168;2023-03-12T17:22:07;3.20;96.20
9116;DHT22;4593;53.652;10.168;2023-03-12T17:24:33;3.30;96.70
9116;DHT22;4593;53.652;10.168;2023-03-12T17:26:59;3.30;96.80
9116;DHT22;4593;53.652;10.168;2023-03-12T17:29:25;3.40;96.50
9116;DHT22;4593;53.652;10.168;2023-03-12T17:31:50;3.40;96.00
9116;DHT22;4593;53.652;10.168;2023-03-12T17:34:16;3.30;96.30
9116;DHT22;4593;53.652;10.168;2023-03-12T17:36:42;3.30;96.40
9116;DHT22;4593;53.652;10.168;2023-03-12T17:39:08;3.30;96.80
9116;DHT22;4593;53.652;10.168;2023-03-12T17:41:34;3.50;97.30
9116;DHT22;4593;53.652;10.168;2023-03-12T17:43:59;3.50;96.60
9116;DHT22;4593;53.652;10.168;2023-03-12T17:46:27;3.50;96.50
9116;DHT22;4593;53.652;10.168;2023-03-12T17:48:54;3.50;96.20
9116;DHT22;4593;53.652;10.168;2023-03-12T17:51:20;3.60;96.60
9116;DHT22;4593;53.652;10.168;2023-03-12T17:53:46;3.50;96.00
9116;DHT22;4593;53.652;10.168;2023-03-12T17:56:12;3.40;96.50
9116;DHT22;4593;53.652;10.168;2023-03-12T17:58:40;3.40;96.90
9116;DHT22;4593;53.652;10.168;2023-03-12T18:01:05;3.50;97.40
9116;DHT22;4593;53.652;10.168;2023-03-12T18:03:31;3.60;97.00
9116;DHT22;4593;53.652;10.168;2023-03-12T18:05:57;3.60;97.00
9116;DHT22;4593;53.652;10.168;2023-03-12T18:08:23;3.60;97.00
9116;DHT22;4593;53.652;10.168;2023-03-12T18:10:48;3.70;97.00
9116;DHT22;4593;53.652;10.168;2023-03-12T18:13:14;3.80;97.20